Time;durP1;ratioP1;P1;durP2;ratioP2;P2;SDS_P1;SDS_P2;PMS_P1;PMS_P2;Temp;Humidity;BMP_temperature;BMP_pressure;BME280_temperature;BME280_humidity;BME280_pressure;Samples;Min_cycle;Max_cycle;Signal;HPM_P1;HPM_P2
2022/09/01 00:04:04;;;;;;;5.30;2.20;;;;;;;17.97;52.56;99343.35;238834;1190;140312;-60
2022/09/01 00:09:17;;;;;;;5.10;1.90;;;;;;;17.94;52.62;99338.63;238773;1192;140017;-58
2022/09/01 00:14:24;;;;;;;6.70;2.10;;;;;;;17.91;52.64;99331.85;238686;1191;139450;-58
2022/09/01 00:19:32;;;;;;;6.50;2.00;;;;;;;17.87;52.70;99330.47;238768;1191;139570;-58
2022/09/01 00:24:36;;;;;;;2.60;1.50;;;;;;;17.81;52.73;99328.14;238778;1192;140369;-58
2022/09/01 00:29:39;;;;;;;6.60;2.10;;;;;;;17.77;53.04;99327.36;238788;1191;139827;-58
2022/09/01 00:34:45;;;;;;;4.90;1.90;;;;;;;17.77;52.99;99330.44;238787;1192;139296;-58
2022/09/01 00:39:48;;;;;;;5.10;1.90;;;;;;;17.72;52.99;99328.29;238705;1191;139203;-57
2022/09/01 00:44:51;;;;;;;5.20;2.40;;;;;;;17.65;52.85;99328.87;238547;1192;140066;-59
2022/09/01 00:49:54;;;;;;;4.40;2.10;;;;;;;17.56;53.05;99327.33;238795;1190;139731;-60
2022/09/01 00:55:06;;;;;;;4.00;1.70;;;;;;;17.49;53.22;99329.55;238857;1190;139815;-58
2022/09/01 01:00:15;;;;;;;5.70;1.90;;;;;;;17.45;53.25;99328.48;238250;1191;140158;-58
2022/09/01 01:05:20;;;;;;;5.30;1.80;;;;;;;17.40;53.23;99331.30;238750;1192;140557;-59
2022/09/01 01:10:25;;;;;;;4.40;2.00;;;;;;;17.33;53.59;99331.64;238846;1190;139458;-58
2022/09/01 01:15:28;;;;;;;4.60;1.90;;;;;;;17.27;53.50;99332.92;238794;1190;139221;-59
2022/09/01 01:25:58;;;;;;;4.20;1.80;;;;;;;17.24;53.86;99334.90;238355;1190;139466;-60
2022/09/01 01:31:04;;;;;;;3.70;1.60;;;;;;;17.22;53.78;99337.58;238846;1190;139581;-60
2022/09/01 01:36:11;;;;;;;5.20;1.60;;;;;;;17.20;53.81;99341.39;238914;1190;138852;-57
2022/09/01 01:41:18;;;;;;;4.90;1.70;;;;;;;17.16;54.01;99338.70;238633;1192;139651;-58
2022/09/01 01:46:21;;;;;;;6.90;2.00;;;;;;;17.11;54.14;99329.95;238604;1192;139710;-59
2022/09/01 01:51:26;;;;;;;3.30;1.60;;;;;;;17.12;53.98;99328.40;238644;1191;139456;-58
2022/09/01 01:56:30;;;;;;;4.40;1.90;;;;;;;17.09;54.25;99330.50;238510;1190;139645;-62
2022/09/01 02:01:33;;;;;;;3.60;1.70;;;;;;;17.06;54.28;99326.48;238308;1192;139954;-61
2022/09/01 02:06:40;;;;;;;4.90;1.90;;;;;;;17.05;54.32;99326.34;238478;1192;139550;-61
2022/09/01 02:11:44;;;;;;;4.40;1.70;;;;;;;17.06;54.15;99331.10;238892;1190;139158;-60
2022/09/01 02:16:48;;;;;;;3.40;1.60;;;;;;;17.06;54.33;99332.19;238627;1192;140585;-60
2022/09/01 02:21:54;;;;;;;5.00;1.80;;;;;;;17.03;54.35;99330.10;238393;1192;143398;-60
2022/09/01 02:26:59;;;;;;;4.50;1.60;;;;;;;16.97;54.31;99335.42;238549;1190;140106;-60
2022/09/01 02:32:03;;;;;;;6.20;1.70;;;;;;;16.91;54.41;99336.84;238871;1190;140546;-61
2022/09/01 02:37:06;;;;;;;4.00;1.70;;;;;;;16.81;54.41;99335.34;238845;1190;139683;-60
2022/09/01 02:42:09;;;;;;;4.10;1.80;;;;;;;16.76;54.52;99336.58;238778;1191;140044;-61
2022/09/01 02:47:12;;;;;;;3.50;1.80;;;;;;;16.71;54.81;99339.67;238535;1191;139310;-60
2022/09/01 02:52:16;;;;;;;3.60;1.80;;;;;;;16.67;54.90;99338.98;238741;1190;143335;-57
2022/09/01 02:57:21;;;;;;;3.60;1.90;;;;;;;16.63;54.88;99334.25;238843;1190;139316;-60
2022/09/01 03:02:27;;;;;;;;;;;;;;;16.59;55.09;99331.56;238576;1192;139523;-58
2022/09/01 03:07:31;;;;;;;6.30;1.80;;;;;;;16.49;55.24;99326.08;238660;1192;125874;-57
2022/09/01 03:12:34;;;;;;;3.90;1.90;;;;;;;16.43;55.25;99316.90;238885;1190;139652;-56
2022/09/01 03:17:37;;;;;;;10.40;7.80;;;;;;;16.46;55.42;99319.73;237965;1192;138781;-57
2022/09/01 03:22:40;;;;;;;64.60;49.90;;;;;;;16.53;55.69;99317.52;238698;1192;140101;-58
2022/09/01 03:27:44;;;;;;;5.40;2.00;;;;;;;16.65;55.84;99324.45;238576;1192;141135;-56
2022/09/01 03:32:47;;;;;;;40.40;31.40;;;;;;;16.74;55.82;99327.09;238516;1192;139877;-58
2022/09/01 03:37:51;;;;;;;5.30;4.00;;;;;;;16.84;55.65;99331.54;238415;1191;139488;-57
2022/09/01 03:42:54;;;;;;;3.20;2.00;;;;;;;16.94;55.70;99329.94;238485;1192;139538;-56
2022/09/01 03:47:57;;;;;;;368.50;310.40;;;;;;;17.00;55.36;99334.98;238590;1191;139368;-58
2022/09/01 03:53:00;;;;;;;25.60;18.90;;;;;;;17.16;56.05;99335.10;238779;1190;140900;-58
2022/09/01 03:58:07;;;;;;;13.80;9.00;;;;;;;17.58;56.42;99334.74;238747;1190;140846;-58
2022/09/01 04:03:15;;;;;;;6.10;3.80;;;;;;;17.94;56.02;99336.86;238345;1192;139333;-58
2022/09/01 04:08:26;;;;;;;5.00;2.60;;;;;;;18.08;55.42;99335.97;238591;1192;138905;-60
2022/09/01 04:13:38;;;;;;;4.80;2.40;;;;;;;18.16;54.94;99339.33;238465;1192;139801;-58
2022/09/01 04:18:41;;;;;;;87.40;63.40;;;;;;;18.19;54.77;99341.91;238494;1192;139569;-59
2022/09/01 04:23:45;;;;;;;10.20;4.40;;;;;;;18.16;54.23;99343.86;238686;1192;140479;-58
2022/09/01 04:28:49;;;;;;;3.90;2.30;;;;;;;17.96;53.71;99344.53;238411;1192;139512;-58
2022/09/01 04:33:52;;;;;;;8.90;2.00;;;;;;;17.74;53.75;99345.18;238137;1192;139662;-59
2022/09/01 04:39:07;;;;;;;5.80;2.50;;;;;;;17.44;53.78;99344.89;238662;1191;140234;-60
2022/09/01 04:44:15;;;;;;;6.80;2.00;;;;;;;17.16;53.84;99343.50;238538;1192;140311;-61
2022/09/01 04:49:20;;;;;;;8.70;2.10;;;;;;;16.91;54.19;99349.39;238608;1191;141174;-61
2022/09/01 04:54:23;;;;;;;6.30;1.90;;;;;;;16.76;54.58;99356.89;238432;1192;139058;-61
2022/09/01 04:59:28;;;;;;;4.10;1.80;;;;;;;16.63;54.59;99356.52;238246;1191;140097;-61
2022/09/01 05:04:35;;;;;;;3.20;1.70;;;;;;;16.50;54.96;99352.70;238620;1190;139503;-62
2022/09/01 05:09:39;;;;;;;8.80;2.10;;;;;;;16.40;55.20;99351.93;238674;1190;139476;-60
2022/09/01 05:14:48;;;;;;;8.90;2.00;;;;;;;16.33;55.41;99356.97;238452;1192;139645;-60
2022/09/01 05:19:54;;;;;;;8.10;2.20;;;;;;;16.29;55.63;99352.09;238510;1190;140201;-60
2022/09/01 05:25:10;;;;;;;7.70;2.00;;;;;;;16.29;55.70;99352.98;237773;1190;139718;-60
2022/09/01 05:30:17;;;;;;;4.80;1.80;;;;;;;16.29;55.80;99348.09;238803;1190;139290;-61
2022/09/01 05:35:23;;;;;;;8.40;2.20;;;;;;;16.27;55.92;99349.70;238608;1192;139342;-61
2022/09/01 05:40:39;;;;;;;6.00;2.00;;;;;;;16.35;56.17;99349.63;238645;1192;139652;-62
2022/09/01 05:45:42;;;;;;;3.90;1.80;;;;;;;16.51;56.41;99348.34;238635;1191;140353;-61
2022/09/01 05:51:07;;;;;;;4.50;1.80;;;;;;;16.62;56.33;99349.73;238711;1190;139121;-60
2022/09/01 05:56:31;;;;;;;5.20;2.00;;;;;;;16.73;56.35;99355.50;237984;1192;139540;-61
2022/09/01 06:01:39;;;;;;;18.10;2.40;;;;;;;16.80;56.21;99355.52;238635;1191;139888;-61
2022/09/01 06:06:48;;;;;;;11.70;2.70;;;;;;;16.86;56.28;99356.10;238612;1191;139284;-60
2022/09/01 06:12:16;;;;;;;14.40;2.10;;;;;;;16.88;56.28;99359.80;238621;1192;139137;-60
2022/09/01 06:17:25;;;;;;;7.90;2.10;;;;;;;16.92;56.10;99360.41;238601;1192;139695;-60
2022/09/01 06:22:33;;;;;;;7.30;2.60;;;;;;;16.98;56.34;99360.09;238586;1191;139534;-60
2022/09/01 06:27:41;;;;;;;7.20;1.70;;;;;;;17.06;56.52;99364.05;238544;1191;139675;-59
2022/09/01 06:32:45;;;;;;;4.60;1.80;;;;;;;17.15;56.26;99367.44;238593;1191;139247;-60
2022/09/01 06:37:48;;;;;;;3.20;1.50;;;;;;;17.20;56.19;99370.08;238691;1191;139362;-61
2022/09/01 06:43:15;;;;;;;6.40;1.90;;;;;;;17.29;56.19;99371.48;238326;1192;139287;-61
2022/09/01 06:48:23;;;;;;;2.50;1.80;;;;;;;17.40;56.17;99376.59;238639;1192;139627;-61
2022/09/01 06:53:30;;;;;;;4.30;1.70;;;;;;;17.49;56.13;99376.20;238395;1192;139152;-61
2022/09/01 06:58:36;;;;;;;4.80;1.50;;;;;;;17.60;56.23;99381.02;237869;1190;139310;-58
2022/09/01 07:03:42;;;;;;;5.10;1.90;;;;;;;17.67;56.03;99383.63;238769;1190;139022;-59
2022/09/01 07:08:55;;;;;;;4.70;1.50;;;;;;;17.75;56.10;99386.04;238634;1191;139223;-58
2022/09/01 07:14:22;;;;;;;3.50;1.20;;;;;;;17.84;55.91;99392.15;237975;1190;139627;-59
2022/09/01 07:19:26;;;;;;;14.80;10.60;;;;;;;17.94;55.88;99393.23;238845;1190;139262;-59
2022/09/01 07:24:56;;;;;;;4.30;2.80;;;;;;;18.28;56.69;99395.09;238657;1190;139800;-59
2022/09/01 07:30:30;;;;;;;5.50;2.00;;;;;;;18.76;56.67;99392.80;238840;1190;139469;-59
2022/09/01 07:35:37;;;;;;;2.90;1.20;;;;;;;19.14;56.44;99392.33;238543;1191;139455;-59
2022/09/01 07:41:00;;;;;;;4.00;2.20;;;;;;;19.39;55.70;99389.50;238462;1191;139046;-60
2022/09/01 07:46:51;;;;;;;6.60;1.80;;;;;;;19.74;55.60;99392.95;238387;1191;139013;-58
2022/09/01 07:52:14;;;;;;;4.40;1.20;;;;;;;20.04;55.17;99386.45;238369;1192;139089;-58
2022/09/01 07:57:31;;;;;;;3.40;1.30;;;;;;;20.25;54.73;99379.27;238409;1192;138812;-59
2022/09/01 08:02:39;;;;;;;2.50;1.40;;;;;;;20.42;54.32;99376.66;238422;1191;140951;-59
2022/09/01 08:07:47;;;;;;;2.80;1.10;;;;;;;20.58;53.98;99373.13;238407;1192;139520;-58
2022/09/01 08:12:55;;;;;;;3.30;1.20;;;;;;;20.68;53.50;99366.52;238579;1191;139086;-59
2022/09/01 08:17:59;;;;;;;1.80;1.10;;;;;;;20.79;53.22;99373.37;238803;1191;139898;-59
2022/09/01 08:23:06;;;;;;;11.60;9.20;;;;;;;20.91;52.94;99369.66;238643;1191;139174;-59
2022/09/01 08:28:13;;;;;;;11.40;7.80;;;;;;;21.10;52.83;99371.05;238695;1191;139452;-58
2022/09/01 08:33:19;;;;;;;10.40;6.90;;;;;;;21.28;52.44;99368.11;238562;1191;139652;-59
2022/09/01 08:38:22;;;;;;;5.50;3.30;;;;;;;21.44;51.99;99364.33;238796;1190;139869;-59
2022/09/01 08:43:25;;;;;;;3.20;2.00;;;;;;;21.51;51.41;99364.71;238846;1190;139442;-58
2022/09/01 08:48:51;;;;;;;3.60;1.70;;;;;;;21.57;51.16;99363.41;238593;1191;139771;-59
2022/09/01 08:55:18;;;;;;;3.90;1.20;;;;;;;21.73;50.89;99358.48;237362;1194;139880;-59
2022/09/01 09:00:24;;;;;;;1.90;1.00;;;;;;;21.81;50.53;99361.65;238264;1191;139837;-59
2022/09/01 09:05:56;;;;;;;3.50;1.00;;;;;;;21.88;50.17;99360.77;237994;1190;139263;-58
2022/09/01 09:11:23;;;;;;;1.30;0.80;;;;;;;21.89;49.66;99359.70;238677;1190;139285;-59
2022/09/01 09:16:38;;;;;;;2.70;0.90;;;;;;;21.95;49.48;99357.41;238735;1190;139170;-59
2022/09/01 09:21:45;;;;;;;2.80;1.10;;;;;;;21.96;49.01;99357.00;238789;1190;140017;-58
2022/09/01 09:26:51;;;;;;;3.70;0.90;;;;;;;21.93;48.73;99354.10;238792;1190;139999;-59
2022/09/01 09:32:04;;;;;;;5.30;1.00;;;;;;;21.92;48.51;99354.89;238554;1191;139157;-59
2022/09/01 09:37:18;;;;;;;4.20;0.90;;;;;;;21.90;48.31;99353.08;238631;1190;139814;-59
2022/09/01 09:42:22;;;;;;;4.10;1.00;;;;;;;21.81;47.82;99355.17;238957;1190;139486;-59
2022/09/01 09:47:43;;;;;;;3.20;1.00;;;;;;;21.87;48.05;99353.20;238816;1190;140328;-58
2022/09/01 09:52:48;;;;;;;4.30;0.60;;;;;;;22.02;47.70;99349.92;238256;1192;139255;-59
2022/09/01 09:57:58;;;;;;;185.20;127.60;;;;;;;22.07;47.01;99350.84;238709;1190;139473;-59
2022/09/01 10:03:06;;;;;;;6.90;4.90;;;;;;;21.94;46.57;99348.70;238694;1192;142522;-58
2022/09/01 10:08:35;;;;;;;2.20;0.90;;;;;;;22.15;46.80;99348.02;238688;1191;139513;-59
2022/09/01 10:13:38;;;;;;;3.70;0.70;;;;;;;22.30;46.37;99345.56;238582;1192;139685;-59
2022/09/01 10:18:45;;;;;;;7.20;0.90;;;;;;;22.51;46.15;99342.41;237550;1190;139771;-59
2022/09/01 10:23:47;;;;;;;5.20;0.90;;;;;;;22.59;45.48;99342.76;238756;1190;139924;-59
2022/09/01 10:29:09;;;;;;;1.20;0.70;;;;;;;22.59;45.33;99336.31;238680;1191;139833;-58
2022/09/01 10:34:16;;;;;;;5.30;0.80;;;;;;;22.71;45.02;99335.90;238740;1191;140717;-59
2022/09/01 10:39:21;;;;;;;3.10;0.90;;;;;;;22.73;45.00;99336.08;238719;1191;139985;-59
2022/09/01 10:44:37;;;;;;;1.80;0.80;;;;;;;22.89;44.56;99341.87;237777;1191;139319;-58
2022/09/01 10:49:43;;;;;;;1.30;0.50;;;;;;;23.04;44.22;99336.61;238738;1190;139556;-58
2022/09/01 10:54:54;;;;;;;1.10;0.70;;;;;;;23.18;44.01;99329.73;238752;1190;139784;-59
2022/09/01 11:00:19;;;;;;;2.20;0.80;;;;;;;23.27;43.89;99325.29;238817;1191;141747;-58
2022/09/01 11:05:56;;;;;;;4.20;1.20;;;;;;;23.15;43.26;99326.44;238740;1190;139948;-58
2022/09/01 11:11:30;;;;;;;3.90;2.50;;;;;;;23.04;44.00;99331.25;238712;1190;140711;-58
2022/09/01 11:16:36;;;;;;;4.10;1.40;;;;;;;23.26;44.16;99322.67;238760;1190;139396;-57
2022/09/01 11:22:12;;;;;;;3.70;1.50;;;;;;;23.51;43.60;99320.61;238732;1190;139653;-58
2022/09/01 11:27:47;;;;;;;3.60;1.00;;;;;;;23.65;42.82;99319.80;238743;1190;139831;-58
2022/09/01 11:32:58;;;;;;;5.90;0.80;;;;;;;23.78;42.47;99321.06;238644;1190;139221;-59
2022/09/01 11:38:06;;;;;;;2.70;1.00;;;;;;;23.87;42.27;99312.39;238820;1190;139806;-58
2022/09/01 11:43:14;;;;;;;9.70;0.90;;;;;;;23.73;41.68;99311.25;238705;1191;139163;-59
2022/09/01 11:48:18;;;;;;;8.20;1.00;;;;;;;23.82;41.60;99305.40;238636;1192;139722;-58
2022/09/01 11:53:22;;;;;;;2.20;0.80;;;;;;;24.07;41.63;99303.21;238412;1191;139249;-59
2022/09/01 11:58:29;;;;;;;3.70;0.70;;;;;;;24.38;41.40;99296.80;238731;1190;139903;-58
2022/09/01 12:03:32;;;;;;;2.20;0.60;;;;;;;24.71;41.00;99297.33;238469;1191;139377;-57
2022/09/01 12:08:40;;;;;;;1.00;0.40;;;;;;;24.93;40.24;99301.48;238884;1192;139525;-59
2022/09/01 12:13:55;;;;;;;1.20;0.70;;;;;;;24.62;39.58;99294.92;238622;1192;139070;-57
2022/09/01 12:18:59;;;;;;;4.00;1.40;;;;;;;24.24;39.59;99299.55;238625;1191;139871;-59
2022/09/01 12:24:18;;;;;;;3.30;0.60;;;;;;;24.42;39.52;99290.68;238910;1190;140827;-59
2022/09/01 12:29:22;;;;;;;7.30;0.80;;;;;;;24.82;39.25;99287.83;238475;1190;140018;-58
2022/09/01 12:34:46;;;;;;;6.40;0.70;;;;;;;25.07;38.53;99291.61;238833;1192;139336;-58
2022/09/01 12:39:53;;;;;;;2.40;0.60;;;;;;;25.45;38.62;99282.45;238759;1190;139486;-57
2022/09/01 12:45:02;;;;;;;2.00;0.70;;;;;;;25.86;38.83;99282.56;238818;1190;139106;-58
2022/09/01 12:50:11;;;;;;;1.90;0.70;;;;;;;26.25;38.34;99278.91;238745;1190;139668;-60
2022/09/01 12:55:19;;;;;;;8.80;0.70;;;;;;;26.21;37.31;99273.90;238714;1191;139464;-57
2022/09/01 13:01:06;;;;;;;1.80;0.80;;;;;;;25.53;36.33;99276.54;238781;1191;139088;-58
2022/09/01 13:06:20;;;;;;;3.30;0.90;;;;;;;24.82;36.48;99276.26;238951;1190;139240;-58
2022/09/01 13:11:23;;;;;;;2.10;0.50;;;;;;;24.37;36.71;99276.36;238667;1190;140051;-58
2022/09/01 13:16:26;;;;;;;2.30;0.40;;;;;;;24.24;36.91;99278.81;238756;1192;140891;-58
2022/09/01 13:21:30;;;;;;;7.00;0.60;;;;;;;24.60;37.13;99282.27;238533;1192;139628;-59
2022/09/01 13:26:34;;;;;;;3.20;0.50;;;;;;;24.40;36.63;99282.45;238571;1192;140218;-58
2022/09/01 13:31:37;;;;;;;2.00;0.40;;;;;;;24.41;36.87;99282.72;238606;1190;138730;-58
2022/09/01 13:37:00;;;;;;;3.90;0.90;;;;;;;24.88;37.03;99281.69;238893;1190;139450;-59
2022/09/01 13:42:04;;;;;;;5.70;0.60;;;;;;;25.40;36.86;99280.79;238872;1190;139584;-58
2022/09/01 13:47:06;;;;;;;0.70;0.50;;;;;;;25.81;36.16;99280.73;237970;1192;140500;-57
2022/09/01 13:52:29;;;;;;;2.00;0.50;;;;;;;26.15;35.71;99276.77;238232;1192;139955;-57
2022/09/01 13:57:34;;;;;;;6.60;0.70;;;;;;;26.38;35.24;99276.23;238825;1190;139486;-59
2022/09/01 14:02:41;;;;;;;5.50;1.10;;;;;;;26.54;34.93;99279.73;237983;1190;139108;-56
2022/09/01 14:07:47;;;;;;;4.50;0.90;;;;;;;26.68;34.48;99273.67;238825;1191;139284;-57
2022/09/01 14:12:50;;;;;;;2.50;0.50;;;;;;;26.74;34.27;99276.34;238641;1190;139213;-58
2022/09/01 14:17:55;;;;;;;155.90;108.90;;;;;;;26.60;34.14;99277.94;238846;1190;140088;-58
2022/09/01 14:22:58;;;;;;;16.40;6.90;;;;;;;26.27;33.92;99279.35;238728;1190;140536;-58
2022/09/01 14:28:06;;;;;;;6.20;1.50;;;;;;;25.82;34.65;99279.90;238721;1191;139589;-58
2022/09/01 14:33:11;;;;;;;2.10;0.70;;;;;;;25.33;34.60;99278.33;238063;1191;139279;-58
2022/09/01 14:38:15;;;;;;;2.20;0.40;;;;;;;24.90;34.41;99279.52;238446;1192;140159;-58
2022/09/01 14:43:19;;;;;;;1.50;0.50;;;;;;;24.57;34.46;99273.36;238537;1192;140354;-58
2022/09/01 14:48:23;;;;;;;1.90;0.50;;;;;;;24.30;34.25;99277.05;238524;1192;140186;-58
2022/09/01 14:53:28;;;;;;;3.60;0.50;;;;;;;24.04;34.27;99273.17;238686;1191;139224;-58
2022/09/01 14:58:32;;;;;;;3.30;0.50;;;;;;;23.83;34.32;99272.05;238623;1192;141165;-58
2022/09/01 15:03:34;;;;;;;2.50;0.50;;;;;;;23.69;34.35;99269.34;238663;1191;139069;-59
2022/09/01 15:08:38;;;;;;;2.70;0.40;;;;;;;23.59;34.57;99269.58;238690;1191;140321;-58
2022/09/01 15:13:42;;;;;;;3.50;0.50;;;;;;;23.44;34.66;99274.25;238682;1191;139913;-58
2022/09/01 15:18:46;;;;;;;3.30;2.10;;;;;;;23.31;34.83;99280.45;238721;1192;139957;-59
2022/09/01 15:23:49;;;;;;;6.60;1.20;;;;;;;23.19;35.22;99281.67;238573;1192;140070;-58
2022/09/01 15:28:58;;;;;;;5.90;0.90;;;;;;;23.03;35.72;99287.71;238658;1191;139824;-59
2022/09/01 15:34:03;;;;;;;5.70;0.70;;;;;;;22.94;36.16;99284.38;238493;1192;140468;-60
2022/09/01 15:39:07;;;;;;;1.70;0.50;;;;;;;22.87;36.41;99288.34;238629;1192;140125;-59
2022/09/01 15:44:10;;;;;;;3.40;0.70;;;;;;;22.74;36.40;99290.85;238354;1192;141551;-58
2022/09/01 15:49:13;;;;;;;14.70;7.40;;;;;;;22.68;36.34;99287.56;238723;1191;139320;-57
2022/09/01 15:54:18;;;;;;;5.20;0.90;;;;;;;22.60;36.23;99291.45;238813;1190;140660;-58
2022/09/01 15:59:21;;;;;;;16.50;10.40;;;;;;;22.52;36.23;99292.85;238727;1192;139200;-58
2022/09/01 16:04:24;;;;;;;9.50;1.90;;;;;;;22.47;36.22;99297.77;238418;1192;140932;-59
2022/09/01 16:09:30;;;;;;;7.30;3.00;;;;;;;22.36;35.91;99296.91;238676;1192;140500;-58
2022/09/01 16:14:33;;;;;;;10.90;8.00;;;;;;;22.26;35.96;99303.62;238664;1192;140196;-58
2022/09/01 16:20:01;;;;;;;4.20;0.90;;;;;;;22.16;35.87;99302.86;238481;1192;139306;-58
2022/09/01 16:25:14;;;;;;;1.80;0.90;;;;;;;22.04;36.03;99301.11;238588;1192;139343;-58
2022/09/01 16:30:23;;;;;;;5.30;0.60;;;;;;;21.95;36.42;99298.02;238574;1192;139058;-58
2022/09/01 16:35:47;;;;;;;2.70;1.20;;;;;;;21.90;36.66;99303.61;238670;1190;140245;-58
2022/09/01 16:40:57;;;;;;;3.60;1.10;;;;;;;21.84;36.83;99305.32;238682;1191;139835;-57
2022/09/01 16:46:23;;;;;;;2.60;0.80;;;;;;;21.82;37.00;99304.15;238605;1191;139737;-58
2022/09/01 16:51:38;;;;;;;3.30;1.00;;;;;;;21.75;37.28;99310.24;238497;1192;139737;-58
2022/09/01 16:56:49;;;;;;;2.00;0.90;;;;;;;21.68;37.40;99311.11;238713;1190;139149;-58
2022/09/01 17:02:20;;;;;;;245.80;200.60;;;;;;;21.62;37.52;99315.20;238593;1190;139074;-58
2022/09/01 17:07:27;;;;;;;28.60;20.70;;;;;;;21.58;38.00;99322.15;238723;1190;140479;-58
2022/09/01 17:12:39;;;;;;;12.10;5.80;;;;;;;21.55;37.99;99329.85;238872;1190;139671;-57
2022/09/01 17:18:03;;;;;;;17.90;13.50;;;;;;;21.52;38.06;99337.41;238744;1190;140196;-58
2022/09/01 17:23:14;;;;;;;6.60;4.40;;;;;;;21.56;39.09;99336.42;238712;1190;140301;-58
2022/09/01 17:28:36;;;;;;;5.80;3.70;;;;;;;21.58;38.99;99343.65;238620;1190;140678;-58
2022/09/01 17:34:22;;;;;;;5.00;2.40;;;;;;;21.48;38.85;99344.63;238647;1192;139775;-57
2022/09/01 17:39:37;;;;;;;4.80;2.60;;;;;;;21.38;38.91;99349.86;238662;1190;139591;-57
2022/09/01 17:44:54;;;;;;;6.70;2.60;;;;;;;21.32;39.31;99348.28;238766;1190;139241;-57
2022/09/01 17:50:16;;;;;;;5.70;1.70;;;;;;;21.31;39.69;99352.74;238573;1191;139530;-58
2022/09/01 17:55:47;;;;;;;339.30;258.20;;;;;;;21.20;39.41;99357.20;238554;1190;139599;-56
2022/09/01 18:00:56;;;;;;;13.10;8.30;;;;;;;21.05;39.68;99361.80;238601;1192;140701;-59
2022/09/01 18:06:05;;;;;;;7.20;4.90;;;;;;;20.93;39.80;99363.95;238804;1192;139723;-57
2022/09/01 18:11:25;;;;;;;4.70;2.70;;;;;;;20.84;40.11;99368.08;238731;1190;139811;-58
2022/09/01 18:16:54;;;;;;;5.60;3.20;;;;;;;20.79;40.33;99373.04;238688;1190;139576;-57
2022/09/01 18:22:03;;;;;;;5.30;2.40;;;;;;;20.73;40.52;99380.64;238294;1191;140593;-57
2022/09/01 18:27:07;;;;;;;6.50;2.60;;;;;;;20.66;40.64;99389.85;238684;1191;139000;-58
2022/09/01 18:32:58;;;;;;;6.30;3.30;;;;;;;20.60;40.87;99395.30;238439;1192;139806;-58
2022/09/01 18:38:13;;;;;;;4.30;2.20;;;;;;;20.49;40.98;99397.45;238431;1192;141011;-58
2022/09/01 18:43:23;;;;;;;5.70;2.10;;;;;;;20.37;41.11;99392.79;238701;1190;139710;-59
2022/09/01 18:49:04;;;;;;;82.90;60.40;;;;;;;20.31;41.43;99393.61;238659;1190;139238;-58
2022/09/01 18:54:26;;;;;;;20.10;14.50;;;;;;;20.36;42.11;99398.65;238784;1190;141106;-58
2022/09/01 18:59:59;;;;;;;8.00;4.80;;;;;;;20.62;42.91;99397.48;238603;1190;139978;-58
2022/09/01 19:05:26;;;;;;;9.30;2.60;;;;;;;20.61;41.93;99400.79;238621;1191;139056;-57
2022/09/01 19:10:40;;;;;;;7.70;4.50;;;;;;;20.41;41.48;99411.02;238685;1190;139920;-59
2022/09/01 19:16:12;;;;;;;6.10;2.50;;;;;;;20.22;41.49;99413.95;238453;1190;139709;-57
2022/09/01 19:21:23;;;;;;;5.50;2.00;;;;;;;20.00;41.49;99419.80;238689;1192;139288;-56
2022/09/01 19:26:35;;;;;;;4.90;1.60;;;;;;;19.80;41.61;99420.48;238659;1192;139088;-57
2022/09/01 19:31:45;;;;;;;4.20;1.70;;;;;;;19.62;41.89;99422.64;238344;1192;139275;-57
2022/09/01 19:36:54;;;;;;;3.30;1.80;;;;;;;19.50;42.10;99424.36;238715;1191;141065;-56
2022/09/01 19:42:12;;;;;;;4.20;1.70;;;;;;;19.34;42.24;99426.30;238838;1190;139030;-57
2022/09/01 19:47:38;;;;;;;2.00;1.20;;;;;;;19.23;42.55;99428.30;238784;1190;140850;-57
2022/09/01 19:52:51;;;;;;;8.00;3.30;;;;;;;19.10;42.77;99427.28;238630;1190;141642;-56
2022/09/01 19:58:03;;;;;;;2.60;1.40;;;;;;;19.00;43.13;99427.48;238713;1191;140253;-56
2022/09/01 20:03:07;;;;;;;2.80;1.50;;;;;;;18.92;43.36;99426.04;238759;1190;140133;-57
2022/09/01 20:08:27;;;;;;;2.30;1.20;;;;;;;18.84;43.36;99429.31;238775;1190;140204;-57
2022/09/01 20:13:59;;;;;;;2.90;1.10;;;;;;;18.77;43.71;99431.19;238403;1191;140055;-57
2022/09/01 20:19:48;;;;;;;1.20;0.80;;;;;;;18.72;43.76;99437.38;238650;1191;139370;-57
2022/09/01 20:24:52;;;;;;;3.20;0.90;;;;;;;18.65;43.82;99440.80;238618;1191;139522;-57
2022/09/01 20:30:05;;;;;;;2.40;0.80;;;;;;;18.60;43.95;99443.21;238708;1192;140549;-56
2022/09/01 20:35:14;;;;;;;1.30;0.90;;;;;;;18.54;44.06;99443.42;238668;1191;140218;-57
2022/09/01 20:40:26;;;;;;;2.30;1.00;;;;;;;18.46;44.29;99443.42;238693;1190;139840;-57
2022/09/01 20:45:30;;;;;;;2.70;1.00;;;;;;;18.40;44.44;99449.90;238402;1192;139916;-56
2022/09/01 20:50:42;;;;;;;4.20;1.00;;;;;;;18.31;44.70;99454.81;237915;1192;140453;-57
2022/09/01 20:55:56;;;;;;;2.50;0.90;;;;;;;18.25;44.91;99456.56;238419;1192;139623;-57
2022/09/01 21:01:09;;;;;;;2.50;1.40;;;;;;;18.16;44.88;99453.38;238509;1192;139310;-58
2022/09/01 21:06:29;;;;;;;4.40;1.30;;;;;;;18.07;45.32;99455.23;238503;1191;140082;-58
2022/09/01 21:11:40;;;;;;;4.00;1.10;;;;;;;18.08;45.39;99460.19;238326;1192;140086;-57
2022/09/01 21:16:55;;;;;;;6.40;1.20;;;;;;;18.08;45.42;99462.75;238548;1191;139313;-57
2022/09/01 21:22:11;;;;;;;1.90;0.90;;;;;;;18.02;45.71;99465.94;238554;1191;139434;-58
2022/09/01 21:27:22;;;;;;;4.40;1.40;;;;;;;17.94;45.85;99466.09;238800;1190;139650;-57
2022/09/01 21:32:28;;;;;;;3.10;1.30;;;;;;;17.94;45.91;99465.75;238648;1192;139401;-57
2022/09/01 21:37:30;;;;;;;5.10;1.40;;;;;;;17.91;46.05;99466.66;238502;1192;139835;-58
2022/09/01 21:42:39;;;;;;;3.00;1.50;;;;;;;17.86;46.25;99465.75;238777;1192;139406;-57
2022/09/01 21:47:44;;;;;;;2.30;1.20;;;;;;;17.80;46.20;99466.44;238819;1190;139231;-58
2022/09/01 21:52:48;;;;;;;3.00;1.40;;;;;;;17.71;46.46;99468.17;238732;1191;140053;-57
2022/09/01 21:57:52;;;;;;;3.80;1.50;;;;;;;17.63;46.45;99470.27;238527;1191;139467;-58
2022/09/01 22:02:59;;;;;;;4.70;1.50;;;;;;;17.54;46.73;99467.45;238743;1192;139925;-56
2022/09/01 22:08:03;;;;;;;3.80;1.90;;;;;;;17.53;46.97;99466.84;238497;1192;140069;-57
2022/09/01 22:13:09;;;;;;;4.90;1.50;;;;;;;17.53;47.18;99468.27;238696;1191;139553;-56
2022/09/01 22:18:12;;;;;;;2.20;1.30;;;;;;;17.49;47.10;99468.77;238899;1191;139435;-57
2022/09/01 22:23:15;;;;;;;5.40;1.60;;;;;;;17.43;47.32;99469.22;238767;1191;139816;-57
2022/09/01 22:28:19;;;;;;;5.50;1.50;;;;;;;17.42;47.39;99467.92;238633;1191;139528;-57
2022/09/01 22:33:22;;;;;;;5.50;1.70;;;;;;;17.37;47.46;99466.92;238471;1191;139599;-57
2022/09/01 22:38:25;;;;;;;2.40;1.40;;;;;;;17.31;47.75;99467.30;238776;1191;139758;-58
2022/09/01 22:43:29;;;;;;;3.90;1.30;;;;;;;17.25;47.95;99468.30;238860;1190;140133;-58
2022/09/01 22:48:32;;;;;;;4.40;1.50;;;;;;;17.14;47.98;99467.19;238742;1191;139571;-58
2022/09/01 22:53:37;;;;;;;1.60;1.20;;;;;;;17.03;48.13;99465.45;238516;1191;139996;-59
2022/09/01 22:58:41;;;;;;;3.40;1.20;;;;;;;16.93;48.29;99466.39;238804;1191;140261;-59
2022/09/01 23:03:44;;;;;;;2.60;1.20;;;;;;;16.83;48.45;99466.02;238771;1190;140165;-59
2022/09/01 23:08:47;;;;;;;2.60;1.40;;;;;;;16.72;48.65;99463.24;238736;1192;139256;-60
2022/09/01 23:13:51;;;;;;;3.00;1.30;;;;;;;16.69;48.89;99459.77;238611;1191;139460;-59
2022/09/01 23:18:54;;;;;;;4.80;1.20;;;;;;;16.66;48.91;99457.81;238868;1190;138993;-59
2022/09/01 23:23:58;;;;;;;3.80;1.40;;;;;;;16.63;49.00;99456.81;238810;1190;141491;-59
2022/09/01 23:29:03;;;;;;;2.80;1.20;;;;;;;16.59;49.09;99460.70;238456;1192;139162;-59
2022/09/01 23:34:07;;;;;;;2.60;1.20;;;;;;;16.53;49.27;99465.81;238687;1191;140054;-58
2022/09/01 23:39:10;;;;;;;6.90;1.20;;;;;;;16.48;49.40;99468.37;238678;1191;146051;-59
2022/09/01 23:44:14;;;;;;;2.20;1.30;;;;;;;16.42;49.40;99465.50;238684;1190;139215;-58
2022/09/01 23:49:18;;;;;;;5.80;1.20;;;;;;;16.38;49.60;99466.85;238842;1190;139549;-59
2022/09/01 23:54:22;;;;;;;2.60;1.20;;;;;;;16.34;49.41;99466.48;238704;1191;139321;-58